createdAt,value
2018-06-03T00:00:57.695Z,86.57
2018-06-03T00:03:29.643Z,86.77
2018-06-03T00:06:01.663Z,86.26
2018-06-03T00:08:33.616Z,86.67
2018-06-03T00:11:05.724Z,86.58
2018-06-03T00:13:37.687Z,86.76
2018-06-03T00:16:09.666Z,86.76
2018-06-03T00:18:41.623Z,87.09
2018-06-03T00:21:25.084Z,86.77
2018-06-03T00:23:57.053Z,87.06
2018-06-03T00:26:29.019Z,87.80
2018-06-03T00:29:00.990Z,88.36
2018-06-03T00:31:32.996Z,88.93
2018-06-03T00:34:04.976Z,89.31
2018-06-03T00:36:45.507Z,89.52
2018-06-03T00:39:17.443Z,88.94
2018-06-03T00:41:49.423Z,87.89
2018-06-03T00:44:21.387Z,87.57
2018-06-03T00:46:53.369Z,87.40
2018-06-03T00:49:25.336Z,88.21
2018-06-03T00:51:57.331Z,87.09
2018-06-03T00:54:29.276Z,87.42
2018-06-03T00:57:09.102Z,87.64
2018-06-03T00:59:41.051Z,87.98
2018-06-03T01:02:13.041Z,88.28
2018-06-03T01:04:44.999Z,87.66
2018-06-03T01:07:16.968Z,88.17
2018-06-03T01:09:48.924Z,88.42
2018-06-03T01:12:20.896Z,90.03
2018-06-03T01:14:52.851Z,90.51
2018-06-03T01:17:24.812Z,90.65
2018-06-03T01:19:56.808Z,90.27
2018-06-03T01:22:28.770Z,90.45
2018-06-03T01:25:01.982Z,91.07
2018-06-03T01:27:33.967Z,91.16
2018-06-03T01:30:05.936Z,92.15
2018-06-03T01:32:37.919Z,93.17
2018-06-03T01:35:10.475Z,93.67
2018-06-03T01:37:42.454Z,94.21
2018-06-03T01:40:14.435Z,94.43
2018-06-03T01:42:46.439Z,94.00
2018-06-03T01:45:18.409Z,93.95
2018-06-03T01:47:57.071Z,93.38
2018-06-03T01:50:29.031Z,93.03
2018-06-03T01:53:01.012Z,93.88
2018-06-03T01:55:33.007Z,94.50
2018-06-03T01:58:04.977Z,94.67
2018-06-03T02:00:36.931Z,94.67
2018-06-03T02:03:08.881Z,94.50
2018-06-03T02:05:40.824Z,95.03
2018-06-03T02:08:12.801Z,95.15
2018-06-03T02:10:44.756Z,95.12
2018-06-03T02:13:16.756Z,94.47
2018-06-03T02:15:48.736Z,95.28
2018-06-03T02:18:20.728Z,95.74
2018-06-03T02:20:52.696Z,95.67
2018-06-03T02:23:24.675Z,96.38
2018-06-03T02:25:56.640Z,96.53
2018-06-03T02:28:28.721Z,96.28
2018-06-03T02:31:00.668Z,96.39
2018-06-03T02:33:32.629Z,95.43
2018-06-03T02:36:06.081Z,95.36
2018-06-03T02:38:38.055Z,95.00
2018-06-03T02:41:10.027Z,94.56
2018-06-03T02:43:42.020Z,94.78
2018-06-03T02:46:13.964Z,95.58
2018-06-03T02:48:45.931Z,95.65
2018-06-03T02:51:17.877Z,95.42
2018-06-03T02:53:49.895Z,96.05
2018-06-03T02:56:21.915Z,95.99
2018-06-03T02:58:53.899Z,95.84
2018-06-03T03:01:25.854Z,96.30
2018-06-03T03:03:57.825Z,96.06
2018-06-03T03:06:29.783Z,95.98
2018-06-03T03:09:01.777Z,95.70
2018-06-03T03:11:33.744Z,95.58
2018-06-03T03:14:05.740Z,95.74
2018-06-03T03:16:37.711Z,95.99
2018-06-03T03:19:09.683Z,95.92
2018-06-03T03:21:41.643Z,96.60
2018-06-03T03:24:13.619Z,96.72
2018-06-03T03:26:45.584Z,96.59
2018-06-03T03:29:17.552Z,97.05
2018-06-03T03:31:49.507Z,97.18
2018-06-03T03:34:21.500Z,96.70
2018-06-03T03:36:53.468Z,96.93
2018-06-03T03:39:25.452Z,96.80
2018-06-03T03:41:57.415Z,96.40
2018-06-03T03:44:29.375Z,95.90
2018-06-03T03:47:01.357Z,95.41
2018-06-03T03:49:33.328Z,95.08
2018-06-03T03:52:05.421Z,94.87
2018-06-03T03:54:37.375Z,93.92
2018-06-03T03:57:09.319Z,93.82
2018-06-03T03:59:41.279Z,93.06
2018-06-03T04:02:13.248Z,92.44
2018-06-03T04:04:45.232Z,91.98
2018-06-03T04:07:17.188Z,91.16
2018-06-03T04:09:49.181Z,90.46
2018-06-03T04:12:21.135Z,91.05
2018-06-03T04:14:53.095Z,90.58
2018-06-03T04:17:25.064Z,89.96
2018-06-03T04:19:57.047Z,89.85
2018-06-03T04:22:29.018Z,88.69
2018-06-03T04:25:00.980Z,86.30
2018-06-03T04:27:32.959Z,81.36
2018-06-03T04:30:04.943Z,74.17
2018-06-03T04:32:36.920Z,70.82
2018-06-03T04:35:08.954Z,68.74
2018-06-03T04:37:40.900Z,69.03
2018-06-03T04:40:12.892Z,68.08
2018-06-03T04:42:44.867Z,66.67
2018-06-03T04:45:16.874Z,68.21
2018-06-03T04:47:48.839Z,72.55
2018-06-03T04:50:20.788Z,76.67
2018-06-03T04:52:52.727Z,75.32
2018-06-03T04:55:24.708Z,70.10
2018-06-03T04:57:56.666Z,70.56
2018-06-03T05:00:28.618Z,65.02
2018-06-03T05:03:00.629Z,60.77
2018-06-03T05:05:32.616Z,56.00
2018-06-03T05:08:04.605Z,55.04
2018-06-03T05:10:36.583Z,54.39
2018-06-03T05:13:08.540Z,53.56
2018-06-03T05:15:40.539Z,51.63
2018-06-03T05:18:12.552Z,49.73
2018-06-03T05:20:44.503Z,50.24
2018-06-03T05:23:16.459Z,50.80
2018-06-03T05:25:48.403Z,50.09
2018-06-03T05:28:20.374Z,51.65
2018-06-03T05:30:52.339Z,52.42
2018-06-03T05:33:24.300Z,52.65
2018-06-03T05:35:56.258Z,50.52
2018-06-03T05:38:28.228Z,49.35
2018-06-03T05:41:00.210Z,49.09
2018-06-03T05:43:32.168Z,49.04
2018-06-03T05:46:04.155Z,47.57
2018-06-03T05:48:36.098Z,47.22
2018-06-03T05:51:08.058Z,44.32
2018-06-03T05:53:40.005Z,42.16
2018-06-03T05:56:11.987Z,47.30
2018-06-03T05:58:43.955Z,47.37
2018-06-03T06:01:15.924Z,47.90
2018-06-03T06:03:47.864Z,48.27
2018-06-03T06:06:19.872Z,46.77
2018-06-03T06:08:51.819Z,43.68
2018-06-03T06:11:23.791Z,42.12
2018-06-03T06:13:55.751Z,44.29
2018-06-03T06:16:27.739Z,44.67
2018-06-03T06:18:59.702Z,44.03
2018-06-03T06:21:31.693Z,42.28
2018-06-03T06:24:03.751Z,42.58
2018-06-03T06:26:35.741Z,40.17
2018-06-03T06:29:07.691Z,40.65
2018-06-03T06:31:39.662Z,39.58
2018-06-03T06:34:11.629Z,38.29
2018-06-03T06:36:43.629Z,38.01
2018-06-03T06:39:15.587Z,36.82
2018-06-03T06:41:47.552Z,37.82
2018-06-03T06:44:19.528Z,34.69
2018-06-03T06:46:51.564Z,36.61
2018-06-03T06:49:23.527Z,36.58
2018-06-03T06:51:55.508Z,35.02
2018-06-03T06:54:27.463Z,36.48
2018-06-03T06:56:59.429Z,35.55
2018-06-03T06:59:31.367Z,34.69
2018-06-03T07:02:03.327Z,32.92
2018-06-03T07:04:35.283Z,35.07
2018-06-03T07:07:07.252Z,35.34
2018-06-03T07:09:39.227Z,33.00
2018-06-03T07:12:11.215Z,32.73
2018-06-03T07:14:43.159Z,32.61
2018-06-03T07:17:15.115Z,31.94
2018-06-03T07:19:47.072Z,34.94
2018-06-03T07:22:19.040Z,32.53
2018-06-03T07:24:50.995Z,33.32
2018-06-03T07:27:22.962Z,32.98
2018-06-03T07:29:54.924Z,30.36
2018-06-03T07:32:26.916Z,31.76
2018-06-03T07:34:58.908Z,31.54
2018-06-03T07:37:30.900Z,30.08
2018-06-03T07:40:02.922Z,31.82
2018-06-03T07:42:34.929Z,30.10
2018-06-03T07:45:06.891Z,29.73
2018-06-03T07:47:38.899Z,30.50
2018-06-03T07:50:10.859Z,31.54
2018-06-03T07:52:42.844Z,30.63
2018-06-03T07:55:14.800Z,31.64
2018-06-03T07:57:46.811Z,29.90
2018-06-03T08:00:18.775Z,30.50
2018-06-03T08:02:50.743Z,32.94
2018-06-03T08:05:22.687Z,32.54
2018-06-03T08:07:54.700Z,30.43
2018-06-03T08:10:26.667Z,30.92
2018-06-03T08:12:58.675Z,29.12
2018-06-03T08:15:30.636Z,31.03
2018-06-03T08:18:02.643Z,31.90
2018-06-03T08:20:34.588Z,30.38
2018-06-03T08:23:06.575Z,28.64
2018-06-03T08:25:38.563Z,27.45
2018-06-03T08:28:10.955Z,28.33
2018-06-03T08:30:42.918Z,27.21
2018-06-03T08:33:14.935Z,28.76
2018-06-03T08:35:46.892Z,30.48
2018-06-03T08:38:18.860Z,29.73
2018-06-03T08:40:50.828Z,31.48
2018-06-03T08:43:22.850Z,29.69
2018-06-03T08:45:54.795Z,28.56
2018-06-03T08:48:26.828Z,28.56
2018-06-03T08:50:58.804Z,26.54
2018-06-03T08:53:30.817Z,28.07
2018-06-03T08:56:02.891Z,29.12
2018-06-03T08:58:34.867Z,28.31
2018-06-03T09:01:06.831Z,30.61
2018-06-03T09:03:38.841Z,30.60
2018-06-03T09:06:10.798Z,28.30
2018-06-03T09:08:42.766Z,25.30
2018-06-03T09:11:14.781Z,25.33
2018-06-03T09:13:47.451Z,28.42
2018-06-03T09:16:19.423Z,29.56
2018-06-03T09:18:51.418Z,26.60
2018-06-03T09:21:23.961Z,26.62
2018-06-03T09:23:55.947Z,28.50
2018-06-03T09:26:27.893Z,27.69
2018-06-03T09:28:59.878Z,28.17
2018-06-03T09:31:31.863Z,29.59
2018-06-03T09:34:03.847Z,31.71
2018-06-03T09:36:35.808Z,31.05
2018-06-03T09:39:08.264Z,31.29
2018-06-03T09:41:40.280Z,28.63
2018-06-03T09:44:12.270Z,33.07
2018-06-03T09:46:44.268Z,33.08
2018-06-03T09:49:16.248Z,31.62
2018-06-03T09:51:48.231Z,29.70
2018-06-03T09:54:20.216Z,27.90
2018-06-03T09:56:52.205Z,27.39
2018-06-03T09:59:24.175Z,28.05
2018-06-03T10:01:56.139Z,25.83
2018-06-03T10:04:28.704Z,27.50
2018-06-03T10:07:00.687Z,27.34
2018-06-03T10:09:32.672Z,28.28
2018-06-03T10:12:04.704Z,28.57
2018-06-03T10:14:36.666Z,29.07
2018-06-03T10:17:08.692Z,27.36
2018-06-03T10:19:40.667Z,25.72
2018-06-03T10:22:12.620Z,25.56
2018-06-03T10:24:44.671Z,27.53
2018-06-03T10:27:16.624Z,25.86
2018-06-03T10:29:48.655Z,28.00
2018-06-03T10:32:20.676Z,29.02
2018-06-03T10:34:52.663Z,32.12
2018-06-03T10:37:24.640Z,30.04
2018-06-03T10:39:56.703Z,30.67
2018-06-03T10:42:28.712Z,28.31
2018-06-03T10:45:00.784Z,29.85
2018-06-03T10:48:36.188Z,28.83
2018-06-03T10:51:08.187Z,30.28
2018-06-03T10:53:40.160Z,27.95
2018-06-03T10:56:12.132Z,27.18
2018-06-03T10:58:44.125Z,26.88
2018-06-03T11:01:16.087Z,29.89
2018-06-03T11:03:48.050Z,32.06
2018-06-03T11:06:20.019Z,33.84
2018-06-03T11:08:51.987Z,36.63
2018-06-03T11:11:23.955Z,35.57
2018-06-03T11:13:55.917Z,35.43
2018-06-03T11:16:27.904Z,35.03
2018-06-03T11:18:59.963Z,30.32
2018-06-03T11:21:31.943Z,28.17
2018-06-03T11:24:03.996Z,30.78
2018-06-03T11:26:36.003Z,28.14
2018-06-03T11:29:07.967Z,27.44
2018-06-03T11:31:39.947Z,27.18
2018-06-03T11:34:11.960Z,26.28
2018-06-03T11:36:43.951Z,26.35
2018-06-03T11:39:15.968Z,26.37
2018-06-03T11:41:47.965Z,26.26
2018-06-03T11:44:20.096Z,27.00
2018-06-03T11:46:52.103Z,25.37
2018-06-03T11:49:24.063Z,26.39
2018-06-03T11:51:56.136Z,25.94
2018-06-03T11:54:28.121Z,26.38
2018-06-03T11:57:01.332Z,26.51
2018-06-03T11:59:40.350Z,25.65
2018-06-03T12:02:13.999Z,21.92
2018-06-03T12:04:45.965Z,20.74
2018-06-03T12:07:17.928Z,21.05
2018-06-03T12:09:49.891Z,21.92
2018-06-03T12:12:21.883Z,23.12
2018-06-03T12:14:56.015Z,25.60
2018-06-03T12:17:28.616Z,24.26
2018-06-03T12:20:00.588Z,23.13
2018-06-03T12:22:32.568Z,24.54
2018-06-03T12:25:05.624Z,27.23
2018-06-03T12:27:37.620Z,24.98
2018-06-03T12:30:09.576Z,24.40
2018-06-03T12:32:42.173Z,26.31
2018-06-03T12:35:14.121Z,24.53
2018-06-03T12:37:46.100Z,26.04
2018-06-03T12:40:18.063Z,26.83
2018-06-03T12:42:50.051Z,26.28
2018-06-03T12:45:22.060Z,23.83
2018-06-03T12:47:54.055Z,23.91
2018-06-03T12:50:26.280Z,24.88
2018-06-03T12:52:58.276Z,24.54
2018-06-03T12:55:30.285Z,26.38
2018-06-03T12:58:02.300Z,29.87
2018-06-03T13:00:34.393Z,26.88
2018-06-03T13:03:06.485Z,24.78
2018-06-03T13:05:38.436Z,22.63
2018-06-03T13:08:10.421Z,21.55
2018-06-03T13:10:42.435Z,20.78
2018-06-03T13:13:14.812Z,21.28
2018-06-03T13:15:46.807Z,20.85
2018-06-03T13:18:18.783Z,20.45
2018-06-03T13:20:50.788Z,20.47
2018-06-03T13:23:22.793Z,21.21
2018-06-03T13:25:54.822Z,23.58
2018-06-03T13:28:26.828Z,22.56
2018-06-03T13:30:58.807Z,22.85
2018-06-03T13:33:30.798Z,21.51
2018-06-03T13:36:02.809Z,20.73
2018-06-03T13:38:34.814Z,20.94
2018-06-03T13:41:06.795Z,20.58
2018-06-03T13:43:38.827Z,19.52
2018-06-03T13:46:17.662Z,21.08
2018-06-03T13:48:49.666Z,20.97
2018-06-03T13:51:21.703Z,20.69
2018-06-03T13:53:53.640Z,22.37
2018-06-03T13:56:25.659Z,20.96
2018-06-03T13:58:57.653Z,19.39
2018-06-03T14:01:29.651Z,22.43
2018-06-03T14:04:01.635Z,23.13
2018-06-03T14:06:33.624Z,22.14
2018-06-03T14:09:06.088Z,21.61
2018-06-03T14:11:38.067Z,19.82
2018-06-03T14:14:10.055Z,23.68
2018-06-03T14:16:42.048Z,27.65
2018-06-03T14:19:14.030Z,28.29
2018-06-03T14:21:45.988Z,26.03
2018-06-03T14:24:17.982Z,24.91
2018-06-03T14:26:49.946Z,24.06
2018-06-03T14:29:21.932Z,23.29
2018-06-03T14:31:53.933Z,22.14
2018-06-03T14:34:25.933Z,21.15
2018-06-03T14:36:57.903Z,21.11
2018-06-03T14:39:29.910Z,20.78
2018-06-03T14:42:01.879Z,21.49
2018-06-03T14:44:33.941Z,21.63
2018-06-03T14:47:05.867Z,22.22
2018-06-03T14:49:37.844Z,22.34
2018-06-03T14:52:09.817Z,21.31
2018-06-03T14:54:41.841Z,21.88
2018-06-03T14:57:13.803Z,23.39
2018-06-03T14:59:45.748Z,23.55
2018-06-03T15:02:18.502Z,20.98
2018-06-03T15:04:50.499Z,22.48
2018-06-03T15:07:22.460Z,22.33
2018-06-03T15:09:54.442Z,23.27
2018-06-03T15:12:26.408Z,22.81
2018-06-03T15:14:58.384Z,20.85
2018-06-03T15:17:30.375Z,21.73
2018-06-03T15:20:02.376Z,21.69
2018-06-03T15:22:34.356Z,21.57
2018-06-03T15:25:06.367Z,21.08
2018-06-03T15:27:38.346Z,21.78
2018-06-03T15:30:10.404Z,20.39
2018-06-03T15:32:42.402Z,21.23
2018-06-03T15:35:14.401Z,20.30
2018-06-03T15:37:46.387Z,21.64
2018-06-03T15:40:18.356Z,22.49
2018-06-03T15:42:50.326Z,23.39
2018-06-03T15:45:22.311Z,23.60
2018-06-03T15:47:54.295Z,23.08
2018-06-03T15:50:26.322Z,25.26
2018-06-03T15:52:58.284Z,24.64
2018-06-03T15:55:30.291Z,24.67
2018-06-03T15:58:02.263Z,25.31
2018-06-03T16:00:34.244Z,24.53
2018-06-03T16:03:06.342Z,23.57
2018-06-03T16:05:38.231Z,22.98
2018-06-03T16:08:10.215Z,22.97
2018-06-03T16:10:42.203Z,22.08
2018-06-03T16:13:14.171Z,22.60
2018-06-03T16:15:47.417Z,23.98
2018-06-03T16:18:19.401Z,24.56
2018-06-03T16:20:51.394Z,23.51
2018-06-03T16:23:23.379Z,24.65
2018-06-03T16:25:55.375Z,24.07
2018-06-03T16:28:27.357Z,24.95
2018-06-03T16:30:59.359Z,24.11
2018-06-03T16:33:31.327Z,22.87
2018-06-03T16:36:03.367Z,24.59
2018-06-03T16:38:35.324Z,24.00
2018-06-03T16:41:07.306Z,26.06
2018-06-03T16:43:39.272Z,25.82
2018-06-03T16:46:11.279Z,26.23
2018-06-03T16:48:43.278Z,28.05
2018-06-03T16:51:15.207Z,28.92
2018-06-03T16:53:47.167Z,28.89
2018-06-03T16:56:19.149Z,28.98
2018-06-03T16:58:51.108Z,28.83
2018-06-03T17:01:23.068Z,28.45
2018-06-03T17:03:55.073Z,29.08
2018-06-03T17:06:27.035Z,30.84
2018-06-03T17:08:58.995Z,32.32
2018-06-03T17:11:30.975Z,33.84
2018-06-03T17:14:02.951Z,33.76
2018-06-03T17:16:34.939Z,34.17
2018-06-03T17:19:06.935Z,35.82
2018-06-03T17:21:38.875Z,34.96
2018-06-03T17:24:10.828Z,35.08
2018-06-03T17:26:42.794Z,35.50
2018-06-03T17:29:14.743Z,36.00
2018-06-03T17:31:46.731Z,35.03
2018-06-03T17:34:18.731Z,36.67
2018-06-03T17:36:50.679Z,36.28
2018-06-03T17:39:22.727Z,37.44
2018-06-03T17:41:54.701Z,36.78
2018-06-03T17:44:26.652Z,36.73
2018-06-03T17:46:58.701Z,37.15
2018-06-03T17:49:30.595Z,37.40
2018-06-03T17:52:02.604Z,38.28
2018-06-03T17:54:34.565Z,37.35
2018-06-03T17:57:06.532Z,36.79
2018-06-03T17:59:38.477Z,37.83
2018-06-03T18:02:10.458Z,38.54
2018-06-03T18:04:42.415Z,37.44
2018-06-03T18:07:14.392Z,39.25
2018-06-03T18:09:46.347Z,39.19
2018-06-03T18:12:18.319Z,40.38
2018-06-03T18:14:50.276Z,40.42
2018-06-03T18:17:22.257Z,39.63
2018-06-03T18:19:54.211Z,39.53
2018-06-03T18:22:26.215Z,40.38
2018-06-03T18:24:58.165Z,40.96
2018-06-03T18:27:30.135Z,41.34
2018-06-03T18:30:02.123Z,40.58
2018-06-03T18:32:34.105Z,41.89
2018-06-03T18:35:06.058Z,41.57
2018-06-03T18:37:38.078Z,42.08
2018-06-03T18:40:10.044Z,43.26
2018-06-03T18:42:42.036Z,43.96
2018-06-03T18:45:13.991Z,43.77
2018-06-03T18:47:45.955Z,44.08
2018-06-03T18:50:17.945Z,44.26
2018-06-03T18:52:49.916Z,45.15
2018-06-03T18:55:21.896Z,45.32
2018-06-03T18:57:53.873Z,45.30
2018-06-03T19:00:25.824Z,45.79
2018-06-03T19:02:57.791Z,46.91
2018-06-03T19:05:29.780Z,46.87
2018-06-03T19:08:01.796Z,47.57
2018-06-03T19:10:36.724Z,46.72
2018-06-03T19:13:08.686Z,46.72
2018-06-03T19:15:40.652Z,46.93
2018-06-03T19:18:12.667Z,47.12
2018-06-03T19:20:44.615Z,47.92
2018-06-03T19:23:16.620Z,48.48
2018-06-03T19:25:48.603Z,49.09
2018-06-03T19:28:20.567Z,50.08
2018-06-03T19:30:52.527Z,49.55
2018-06-03T19:33:24.566Z,50.01
2018-06-03T19:35:56.461Z,50.77
2018-06-03T19:38:28.444Z,50.80
2018-06-03T19:41:00.407Z,50.21
2018-06-03T19:43:33.183Z,51.12
2018-06-03T19:46:05.178Z,50.53
2018-06-03T19:48:38.496Z,51.69
2018-06-03T19:51:10.502Z,51.45
2018-06-03T19:53:42.473Z,51.61
2018-06-03T19:56:14.456Z,51.81
2018-06-03T19:58:46.439Z,52.20
2018-06-03T20:01:18.404Z,53.19
2018-06-03T20:03:50.422Z,53.91
2018-06-03T20:06:22.438Z,54.96
2018-06-03T20:08:54.351Z,55.22
2018-06-03T20:11:26.340Z,55.47
2018-06-03T20:13:58.316Z,55.52
2018-06-03T20:16:30.436Z,55.80
2018-06-03T20:19:02.403Z,55.26
2018-06-03T20:21:34.395Z,55.83
2018-06-03T20:24:06.359Z,56.87
2018-06-03T20:26:38.339Z,57.17
2018-06-03T20:29:10.337Z,57.53
2018-06-03T20:31:42.293Z,58.70
2018-06-03T20:34:14.316Z,58.41
2018-06-03T20:36:46.276Z,58.56
2018-06-03T20:39:18.315Z,59.67
2018-06-03T20:41:50.259Z,59.66
2018-06-03T20:44:22.223Z,59.97
2018-06-03T20:46:54.184Z,60.23
2018-06-03T20:49:26.151Z,59.70
2018-06-03T20:51:58.108Z,59.88
2018-06-03T20:54:30.065Z,60.89
2018-06-03T20:57:02.025Z,61.22
2018-06-03T20:59:34.035Z,60.92
2018-06-03T21:02:06.010Z,61.19
2018-06-03T21:04:38.014Z,61.88
2018-06-03T21:07:09.987Z,62.70
2018-06-03T21:09:41.950Z,61.85
2018-06-03T21:12:13.959Z,62.11
2018-06-03T21:14:45.932Z,61.65
2018-06-03T21:17:17.896Z,61.75
2018-06-03T21:19:49.860Z,62.41
2018-06-03T21:22:21.819Z,62.58
2018-06-03T21:24:53.815Z,61.93
2018-06-03T21:27:25.781Z,62.57
2018-06-03T21:29:57.767Z,61.79
2018-06-03T21:32:31.000Z,61.36
2018-06-03T21:35:03.015Z,61.30
2018-06-03T21:37:34.978Z,60.87
2018-06-03T21:40:06.955Z,60.55
2018-06-03T21:42:38.918Z,60.66
2018-06-03T21:45:10.878Z,60.31
2018-06-03T21:47:42.824Z,60.14
2018-06-03T21:50:14.856Z,60.36
2018-06-03T21:52:46.832Z,60.25
2018-06-03T21:55:18.803Z,60.51
2018-06-03T21:57:50.764Z,60.95
2018-06-03T22:00:22.804Z,61.34
2018-06-03T22:02:54.791Z,61.08
2018-06-03T22:08:05.385Z,61.51
2018-06-03T22:10:37.349Z,61.91
2018-06-03T22:13:09.308Z,62.83
2018-06-03T22:15:41.268Z,63.75
2018-06-03T22:18:14.012Z,64.34
2018-06-03T22:20:45.923Z,64.78
2018-06-03T22:23:17.891Z,64.88
2018-06-03T22:25:49.859Z,65.41
2018-06-03T22:28:22.473Z,66.24
2018-06-03T22:30:54.481Z,67.23
2018-06-03T22:33:26.452Z,67.19
2018-06-03T22:35:58.407Z,67.86
2018-06-03T22:38:30.415Z,68.75
2018-06-03T22:41:02.384Z,69.04
2018-06-03T22:43:34.345Z,69.56
2018-06-03T22:46:06.328Z,69.21
2018-06-03T22:48:38.309Z,70.76
2018-06-03T22:51:10.291Z,69.77
2018-06-03T22:53:42.243Z,70.41
2018-06-03T22:56:14.226Z,70.52
2018-06-03T22:58:46.179Z,71.17
2018-06-03T23:01:18.176Z,71.27
2018-06-03T23:03:50.143Z,72.15
2018-06-03T23:06:22.119Z,71.83
2018-06-03T23:08:54.083Z,71.89
2018-06-03T23:11:26.056Z,72.74
2018-06-03T23:13:57.999Z,73.57
2018-06-03T23:16:29.988Z,73.86
2018-06-03T23:19:01.928Z,73.42
2018-06-03T23:21:33.897Z,72.75
2018-06-03T23:24:05.855Z,72.75
2018-06-03T23:26:38.523Z,73.38
2018-06-03T23:29:10.480Z,72.48
2018-06-03T23:31:42.452Z,73.10
2018-06-03T23:34:14.415Z,74.28
2018-06-03T23:36:47.694Z,74.70
2018-06-03T23:39:19.628Z,75.23
2018-06-03T23:41:51.600Z,75.90
2018-06-03T23:44:23.556Z,75.54
2018-06-03T23:46:55.531Z,75.98
2018-06-03T23:49:27.493Z,74.92
2018-06-03T23:51:59.447Z,75.83
2018-06-03T23:54:31.400Z,76.51
2018-06-03T23:57:03.411Z,76.72
2018-06-03T23:59:35.437Z,77.97
